sensor_id;sensor_type;location;lat;lon;timestamp;temperature;humidity
38938;DHT22;24727;51.974;20.868;2022-12-18T00:01:24;-4.50;23.10
38938;DHT22;24727;51.974;20.868;2022-12-18T00:03:53;-4.40;21.60
38938;DHT22;24727;51.974;20.868;2022-12-18T00:06:22;-4.40;20.60
38938;DHT22;24727;51.974;20.868;2022-12-18T00:08:49;-4.40;20.80
38938;DHT22;24727;51.974;20.868;2022-12-18T00:11:19;-4.40;20.40
38938;DHT22;24727;51.974;20.868;2022-12-18T00:13:46;-4.40;20.20
38938;DHT22;24727;51.974;20.868;2022-12-18T00:16:15;-4.30;18.70
38938;DHT22;24727;51.974;20.868;2022-12-18T00:18:43;-4.30;16.30
38938;DHT22;24727;51.974;20.868;2022-12-18T00:21:11;-4.30;13.80
38938;DHT22;24727;51.974;20.868;2022-12-18T00:23:38;-4.20;8.40
38938;DHT22;24727;51.974;20.868;2022-12-18T00:26:07;-4.20;4.90
38938;DHT22;24727;51.974;20.868;2022-12-18T00:28:34;-4.20;2.70
38938;DHT22;24727;51.974;20.868;2022-12-18T00:31:07;-4.10;1.00
38938;DHT22;24727;51.974;20.868;2022-12-18T00:33:36;-4.10;1.00
38938;DHT22;24727;51.974;20.868;2022-12-18T00:36:25;-4.10;1.00
38938;DHT22;24727;51.974;20.868;2022-12-18T00:38:52;-4.10;1.00
38938;DHT22;24727;51.974;20.868;2022-12-18T00:41:20;-4.10;1.00
38938;DHT22;24727;51.974;20.868;2022-12-18T00:44:07;-4.10;1.00
38938;DHT22;24727;51.974;20.868;2022-12-18T00:46:35;-4.10;1.00
38938;DHT22;24727;51.974;20.868;2022-12-18T00:49:01;-4.10;1.00
38938;DHT22;24727;51.974;20.868;2022-12-18T00:51:27;-4.10;1.00
38938;DHT22;24727;51.974;20.868;2022-12-18T00:53:53;-4.10;1.00
38938;DHT22;24727;51.974;20.868;2022-12-18T00:56:20;-4.10;1.00
38938;DHT22;24727;51.974;20.868;2022-12-18T00:58:46;-4.10;1.00
38938;DHT22;24727;51.974;20.868;2022-12-18T01:01:14;-4.10;1.00
38938;DHT22;24727;51.974;20.868;2022-12-18T01:03:41;-4.00;1.00
38938;DHT22;24727;51.974;20.868;2022-12-18T01:06:11;-4.00;1.00
38938;DHT22;24727;51.974;20.868;2022-12-18T01:08:39;-3.90;1.00
38938;DHT22;24727;51.974;20.868;2022-12-18T01:11:16;-3.90;1.00
38938;DHT22;24727;51.974;20.868;2022-12-18T01:13:49;-3.90;1.00
38938;DHT22;24727;51.974;20.868;2022-12-18T01:16:17;-4.00;1.00
38938;DHT22;24727;51.974;20.868;2022-12-18T01:18:43;-4.00;1.00
38938;DHT22;24727;51.974;20.868;2022-12-18T01:21:12;-4.00;1.00
38938;DHT22;24727;51.974;20.868;2022-12-18T01:23:38;-4.00;1.00
38938;DHT22;24727;51.974;20.868;2022-12-18T01:26:07;-4.00;1.00
38938;DHT22;24727;51.974;20.868;2022-12-18T01:28:33;-4.00;1.00
38938;DHT22;24727;51.974;20.868;2022-12-18T01:31:22;-4.00;1.00
38938;DHT22;24727;51.974;20.868;2022-12-18T01:33:51;-4.00;1.00
38938;DHT22;24727;51.974;20.868;2022-12-18T01:36:32;-4.00;1.00
38938;DHT22;24727;51.974;20.868;2022-12-18T01:39:07;-4.00;1.00
38938;DHT22;24727;51.974;20.868;2022-12-18T01:41:36;-3.90;1.00
38938;DHT22;24727;51.974;20.868;2022-12-18T01:50:32;-3.90;1.00
38938;DHT22;24727;51.974;20.868;2022-12-18T01:53:13;-3.90;1.00
38938;DHT22;24727;51.974;20.868;2022-12-18T01:55:49;-3.80;1.00
38938;DHT22;24727;51.974;20.868;2022-12-18T01:58:17;-3.90;1.60
38938;DHT22;24727;51.974;20.868;2022-12-18T02:00:44;-3.90;2.60
38938;DHT22;24727;51.974;20.868;2022-12-18T02:03:10;-3.90;5.30
38938;DHT22;24727;51.974;20.868;2022-12-18T02:08:24;-3.80;3.90
38938;DHT22;24727;51.974;20.868;2022-12-18T02:18:52;-3.70;1.00
38938;DHT22;24727;51.974;20.868;2022-12-18T02:21:47;-3.70;1.00
38938;DHT22;24727;51.974;20.868;2022-12-18T02:24:24;-3.70;1.00
38938;DHT22;24727;51.974;20.868;2022-12-18T02:26:58;-3.70;1.00
38938;DHT22;24727;51.974;20.868;2022-12-18T02:29:32;-3.70;1.00
38938;DHT22;24727;51.974;20.868;2022-12-18T02:32:02;-3.70;1.00
38938;DHT22;24727;51.974;20.868;2022-12-18T02:34:33;-3.70;1.00
38938;DHT22;24727;51.974;20.868;2022-12-18T02:37:03;-3.70;1.00
38938;DHT22;24727;51.974;20.868;2022-12-18T02:39:35;-3.70;1.00
38938;DHT22;24727;51.974;20.868;2022-12-18T02:42:03;-3.70;1.00
38938;DHT22;24727;51.974;20.868;2022-12-18T02:44:35;-3.80;1.00
38938;DHT22;24727;51.974;20.868;2022-12-18T02:47:10;-3.70;1.00
38938;DHT22;24727;51.974;20.868;2022-12-18T02:49:57;-3.70;1.00
38938;DHT22;24727;51.974;20.868;2022-12-18T02:52:47;-3.70;1.00
38938;DHT22;24727;51.974;20.868;2022-12-18T02:55:33;-3.70;1.00
38938;DHT22;24727;51.974;20.868;2022-12-18T02:58:14;-3.80;1.00
38938;DHT22;24727;51.974;20.868;2022-12-18T03:03:31;-3.80;1.00
38938;DHT22;24727;51.974;20.868;2022-12-18T03:06:10;-3.80;1.00
38938;DHT22;24727;51.974;20.868;2022-12-18T03:08:42;-3.80;1.00
38938;DHT22;24727;51.974;20.868;2022-12-18T03:11:12;-3.80;1.00
38938;DHT22;24727;51.974;20.868;2022-12-18T03:16:14;-3.80;1.00
38938;DHT22;24727;51.974;20.868;2022-12-18T03:19:03;-3.80;1.00
38938;DHT22;24727;51.974;20.868;2022-12-18T03:21:47;-3.80;1.00
38938;DHT22;24727;51.974;20.868;2022-12-18T03:24:15;-3.80;1.00
38938;DHT22;24727;51.974;20.868;2022-12-18T03:26:47;-3.90;1.00
38938;DHT22;24727;51.974;20.868;2022-12-18T03:29:25;-3.80;1.00
38938;DHT22;24727;51.974;20.868;2022-12-18T03:32:04;-3.90;1.00
38938;DHT22;24727;51.974;20.868;2022-12-18T03:34:35;-3.90;1.00
38938;DHT22;24727;51.974;20.868;2022-12-18T03:37:04;-3.90;1.00
38938;DHT22;24727;51.974;20.868;2022-12-18T03:39:31;-3.90;1.00
38938;DHT22;24727;51.974;20.868;2022-12-18T03:43:10;-3.90;1.00
38938;DHT22;24727;51.974;20.868;2022-12-18T03:45:16;-4.00;1.00
38938;DHT22;24727;51.974;20.868;2022-12-18T03:51:00;-4.00;1.00
38938;DHT22;24727;51.974;20.868;2022-12-18T03:53:47;-4.00;1.00
38938;DHT22;24727;51.974;20.868;2022-12-18T03:56:18;-4.00;1.00
38938;DHT22;24727;51.974;20.868;2022-12-18T03:58:46;-4.00;1.00
38938;DHT22;24727;51.974;20.868;2022-12-18T04:01:15;-4.00;1.00
38938;DHT22;24727;51.974;20.868;2022-12-18T04:03:44;-4.00;1.00
38938;DHT22;24727;51.974;20.868;2022-12-18T04:06:14;-4.00;1.00
38938;DHT22;24727;51.974;20.868;2022-12-18T04:08:41;-4.10;1.00
38938;DHT22;24727;51.974;20.868;2022-12-18T04:11:08;-4.10;1.00
38938;DHT22;24727;51.974;20.868;2022-12-18T04:13:38;-4.10;1.00
38938;DHT22;24727;51.974;20.868;2022-12-18T04:16:07;-4.10;1.00
38938;DHT22;24727;51.974;20.868;2022-12-18T04:18:36;-4.10;1.00
38938;DHT22;24727;51.974;20.868;2022-12-18T04:21:03;-4.10;1.00
38938;DHT22;24727;51.974;20.868;2022-12-18T04:23:29;-4.20;1.00
38938;DHT22;24727;51.974;20.868;2022-12-18T04:25:56;-4.20;1.00
38938;DHT22;24727;51.974;20.868;2022-12-18T04:28:22;-4.30;1.00
38938;DHT22;24727;51.974;20.868;2022-12-18T04:30:48;-4.30;1.00
38938;DHT22;24727;51.974;20.868;2022-12-18T04:33:14;-4.30;1.00
38938;DHT22;24727;51.974;20.868;2022-12-18T04:35:41;-4.30;1.00
38938;DHT22;24727;51.974;20.868;2022-12-18T04:38:08;-4.20;1.00
38938;DHT22;24727;51.974;20.868;2022-12-18T04:40:37;-4.30;1.00
38938;DHT22;24727;51.974;20.868;2022-12-18T04:43:05;-4.40;1.00
38938;DHT22;24727;51.974;20.868;2022-12-18T04:45:32;-4.30;1.00
38938;DHT22;24727;51.974;20.868;2022-12-18T04:48:00;-4.30;1.00
38938;DHT22;24727;51.974;20.868;2022-12-18T04:50:28;-4.30;1.00
38938;DHT22;24727;51.974;20.868;2022-12-18T04:52:56;-4.30;1.00
38938;DHT22;24727;51.974;20.868;2022-12-18T04:55:30;-4.40;1.00
38938;DHT22;24727;51.974;20.868;2022-12-18T04:57:58;-4.40;1.00
38938;DHT22;24727;51.974;20.868;2022-12-18T05:00:25;-4.40;1.00
38938;DHT22;24727;51.974;20.868;2022-12-18T05:02:52;-4.40;1.00
38938;DHT22;24727;51.974;20.868;2022-12-18T05:05:18;-4.40;1.00
38938;DHT22;24727;51.974;20.868;2022-12-18T05:07:44;-4.30;1.00
38938;DHT22;24727;51.974;20.868;2022-12-18T05:10:13;-4.40;1.00
38938;DHT22;24727;51.974;20.868;2022-12-18T05:12:39;-4.40;1.00
38938;DHT22;24727;51.974;20.868;2022-12-18T05:15:30;-4.40;1.00
38938;DHT22;24727;51.974;20.868;2022-12-18T05:18:03;-4.40;1.00
38938;DHT22;24727;51.974;20.868;2022-12-18T05:20:29;-4.40;1.00
38938;DHT22;24727;51.974;20.868;2022-12-18T05:22:57;-4.40;1.00
38938;DHT22;24727;51.974;20.868;2022-12-18T05:25:23;-4.40;1.00
38938;DHT22;24727;51.974;20.868;2022-12-18T05:27:49;-4.40;1.00
38938;DHT22;24727;51.974;20.868;2022-12-18T05:30:15;-4.40;1.00
38938;DHT22;24727;51.974;20.868;2022-12-18T05:32:42;-4.50;1.00
38938;DHT22;24727;51.974;20.868;2022-12-18T05:35:10;-4.50;1.00
38938;DHT22;24727;51.974;20.868;2022-12-18T05:37:37;-4.40;1.00
38938;DHT22;24727;51.974;20.868;2022-12-18T05:40:04;-4.50;1.00
38938;DHT22;24727;51.974;20.868;2022-12-18T05:42:31;-4.50;1.00
38938;DHT22;24727;51.974;20.868;2022-12-18T05:44:57;-4.50;1.00
38938;DHT22;24727;51.974;20.868;2022-12-18T05:47:26;-4.60;1.00
38938;DHT22;24727;51.974;20.868;2022-12-18T05:49:53;-4.60;1.00
38938;DHT22;24727;51.974;20.868;2022-12-18T05:52:20;-4.60;1.00
38938;DHT22;24727;51.974;20.868;2022-12-18T05:54:47;-4.70;1.00
38938;DHT22;24727;51.974;20.868;2022-12-18T05:57:14;-4.70;1.00
38938;DHT22;24727;51.974;20.868;2022-12-18T05:59:40;-4.70;1.00
38938;DHT22;24727;51.974;20.868;2022-12-18T06:02:06;-4.70;1.00
38938;DHT22;24727;51.974;20.868;2022-12-18T06:04:32;-4.70;1.00
38938;DHT22;24727;51.974;20.868;2022-12-18T06:06:58;-4.80;1.00
38938;DHT22;24727;51.974;20.868;2022-12-18T06:09:24;-4.80;1.00
38938;DHT22;24727;51.974;20.868;2022-12-18T06:11:52;-4.80;1.00
38938;DHT22;24727;51.974;20.868;2022-12-18T06:14:18;-4.80;1.00
38938;DHT22;24727;51.974;20.868;2022-12-18T06:16:44;-4.80;1.00
38938;DHT22;24727;51.974;20.868;2022-12-18T06:19:14;-4.80;1.00
38938;DHT22;24727;51.974;20.868;2022-12-18T06:21:41;-4.80;1.00
38938;DHT22;24727;51.974;20.868;2022-12-18T06:24:08;-4.80;1.00
38938;DHT22;24727;51.974;20.868;2022-12-18T06:26:33;-4.80;1.00
38938;DHT22;24727;51.974;20.868;2022-12-18T06:28:59;-4.80;1.00
38938;DHT22;24727;51.974;20.868;2022-12-18T06:31:30;-4.80;1.00
38938;DHT22;24727;51.974;20.868;2022-12-18T06:33:57;-4.70;1.00
38938;DHT22;24727;51.974;20.868;2022-12-18T06:36:23;-4.70;1.00
38938;DHT22;24727;51.974;20.868;2022-12-18T06:38:49;-4.60;1.00
38938;DHT22;24727;51.974;20.868;2022-12-18T06:41:19;-4.60;1.00
38938;DHT22;24727;51.974;20.868;2022-12-18T06:43:45;-4.70;1.00
38938;DHT22;24727;51.974;20.868;2022-12-18T06:46:12;-4.60;1.00
38938;DHT22;24727;51.974;20.868;2022-12-18T06:48:39;-4.70;1.00
38938;DHT22;24727;51.974;20.868;2022-12-18T06:51:05;-4.70;1.00
38938;DHT22;24727;51.974;20.868;2022-12-18T06:53:32;-4.80;1.00
38938;DHT22;24727;51.974;20.868;2022-12-18T06:56:06;-4.80;1.00
38938;DHT22;24727;51.974;20.868;2022-12-18T06:58:35;-4.80;1.00
38938;DHT22;24727;51.974;20.868;2022-12-18T07:01:06;-4.80;1.00
38938;DHT22;24727;51.974;20.868;2022-12-18T07:03:32;-4.80;1.00
38938;DHT22;24727;51.974;20.868;2022-12-18T07:05:59;-4.80;1.00
38938;DHT22;24727;51.974;20.868;2022-12-18T07:08:25;-4.80;1.00
38938;DHT22;24727;51.974;20.868;2022-12-18T07:10:51;-4.80;1.00
38938;DHT22;24727;51.974;20.868;2022-12-18T07:13:18;-4.80;1.00
38938;DHT22;24727;51.974;20.868;2022-12-18T07:15:44;-4.70;1.00
38938;DHT22;24727;51.974;20.868;2022-12-18T07:18:10;-4.70;1.00
38938;DHT22;24727;51.974;20.868;2022-12-18T07:20:37;-4.70;1.00
38938;DHT22;24727;51.974;20.868;2022-12-18T07:23:04;-4.70;1.00
38938;DHT22;24727;51.974;20.868;2022-12-18T07:25:36;-4.60;1.00
38938;DHT22;24727;51.974;20.868;2022-12-18T07:28:03;-4.60;1.00
38938;DHT22;24727;51.974;20.868;2022-12-18T07:30:29;-4.60;1.00
38938;DHT22;24727;51.974;20.868;2022-12-18T07:32:55;-4.60;1.00
38938;DHT22;24727;51.974;20.868;2022-12-18T07:35:23;-4.60;1.00
38938;DHT22;24727;51.974;20.868;2022-12-18T07:37:50;-4.60;1.00
38938;DHT22;24727;51.974;20.868;2022-12-18T07:40:17;-4.60;1.00
38938;DHT22;24727;51.974;20.868;2022-12-18T07:42:46;-4.60;1.00
38938;DHT22;24727;51.974;20.868;2022-12-18T07:45:14;-4.70;1.00
38938;DHT22;24727;51.974;20.868;2022-12-18T07:47:41;-4.70;1.00
38938;DHT22;24727;51.974;20.868;2022-12-18T07:50:07;-4.60;1.00
38938;DHT22;24727;51.974;20.868;2022-12-18T07:52:33;-4.70;1.00
38938;DHT22;24727;51.974;20.868;2022-12-18T07:55:06;-4.70;1.00
38938;DHT22;24727;51.974;20.868;2022-12-18T07:57:32;-4.70;1.00
38938;DHT22;24727;51.974;20.868;2022-12-18T07:59:58;-4.60;1.00
38938;DHT22;24727;51.974;20.868;2022-12-18T08:02:24;-4.60;1.00
38938;DHT22;24727;51.974;20.868;2022-12-18T08:04:50;-4.60;1.00
38938;DHT22;24727;51.974;20.868;2022-12-18T08:07:17;-4.50;1.00
38938;DHT22;24727;51.974;20.868;2022-12-18T08:09:43;-4.40;1.00
38938;DHT22;24727;51.974;20.868;2022-12-18T08:12:09;-4.50;1.00
38938;DHT22;24727;51.974;20.868;2022-12-18T08:14:36;-4.70;1.00
38938;DHT22;24727;51.974;20.868;2022-12-18T08:17:02;-4.70;1.00
38938;DHT22;24727;51.974;20.868;2022-12-18T08:19:29;-4.70;1.00
38938;DHT22;24727;51.974;20.868;2022-12-18T08:21:55;-4.60;1.00
38938;DHT22;24727;51.974;20.868;2022-12-18T08:24:28;-4.70;1.00
38938;DHT22;24727;51.974;20.868;2022-12-18T08:26:55;-4.70;1.00
38938;DHT22;24727;51.974;20.868;2022-12-18T08:29:22;-4.60;1.00
38938;DHT22;24727;51.974;20.868;2022-12-18T08:31:49;-4.60;1.00
38938;DHT22;24727;51.974;20.868;2022-12-18T08:34:15;-4.60;1.00
38938;DHT22;24727;51.974;20.868;2022-12-18T08:36:42;-4.70;1.00
38938;DHT22;24727;51.974;20.868;2022-12-18T08:39:08;-4.70;1.00
38938;DHT22;24727;51.974;20.868;2022-12-18T08:41:35;-4.70;1.00
38938;DHT22;24727;51.974;20.868;2022-12-18T08:44:01;-4.80;1.00
38938;DHT22;24727;51.974;20.868;2022-12-18T08:46:46;-4.80;1.00
38938;DHT22;24727;51.974;20.868;2022-12-18T08:49:18;-4.70;1.00
38938;DHT22;24727;51.974;20.868;2022-12-18T08:51:45;-4.70;1.00
38938;DHT22;24727;51.974;20.868;2022-12-18T08:54:12;-4.60;1.00
38938;DHT22;24727;51.974;20.868;2022-12-18T08:56:41;-4.40;1.00
38938;DHT22;24727;51.974;20.868;2022-12-18T08:59:08;-4.50;1.00
38938;DHT22;24727;51.974;20.868;2022-12-18T09:01:34;-4.30;1.00
38938;DHT22;24727;51.974;20.868;2022-12-18T09:04:00;-4.30;1.00
38938;DHT22;24727;51.974;20.868;2022-12-18T09:06:27;-4.30;1.00
38938;DHT22;24727;51.974;20.868;2022-12-18T09:08:53;-4.30;1.00
38938;DHT22;24727;51.974;20.868;2022-12-18T09:11:23;-4.40;1.00
38938;DHT22;24727;51.974;20.868;2022-12-18T09:13:50;-4.30;1.00
38938;DHT22;24727;51.974;20.868;2022-12-18T09:16:18;-4.20;1.00
38938;DHT22;24727;51.974;20.868;2022-12-18T09:18:46;-4.10;1.00
38938;DHT22;24727;51.974;20.868;2022-12-18T09:21:15;-4.10;1.00
38938;DHT22;24727;51.974;20.868;2022-12-18T09:23:43;-4.20;1.00
38938;DHT22;24727;51.974;20.868;2022-12-18T09:26:10;-4.10;1.00
38938;DHT22;24727;51.974;20.868;2022-12-18T09:28:36;-4.10;1.00
38938;DHT22;24727;51.974;20.868;2022-12-18T09:31:07;-4.00;1.00
38938;DHT22;24727;51.974;20.868;2022-12-18T09:33:36;-3.90;1.00
38938;DHT22;24727;51.974;20.868;2022-12-18T09:36:04;-3.60;1.00
38938;DHT22;24727;51.974;20.868;2022-12-18T09:38:32;-3.40;1.00
38938;DHT22;24727;51.974;20.868;2022-12-18T09:43:41;-2.70;1.00
38938;DHT22;24727;51.974;20.868;2022-12-18T09:46:15;-3.00;1.00
38938;DHT22;24727;51.974;20.868;2022-12-18T09:48:46;-3.10;1.00
38938;DHT22;24727;51.974;20.868;2022-12-18T09:51:30;-3.30;1.00
38938;DHT22;24727;51.974;20.868;2022-12-18T09:54:03;-2.90;1.00
38938;DHT22;24727;51.974;20.868;2022-12-18T09:56:35;-2.60;1.00
38938;DHT22;24727;51.974;20.868;2022-12-18T09:59:04;-2.50;1.00
38938;DHT22;24727;51.974;20.868;2022-12-18T10:01:32;-3.00;1.00
38938;DHT22;24727;51.974;20.868;2022-12-18T10:04:01;-3.30;1.00
38938;DHT22;24727;51.974;20.868;2022-12-18T10:12:51;-3.90;1.00
38938;DHT22;24727;51.974;20.868;2022-12-18T10:15:36;-3.70;1.00
38938;DHT22;24727;51.974;20.868;2022-12-18T10:26:05;-4.00;1.00
38938;DHT22;24727;51.974;20.868;2022-12-18T10:28:34;-4.00;1.00
38938;DHT22;24727;51.974;20.868;2022-12-18T10:31:06;-4.10;1.00
38938;DHT22;24727;51.974;20.868;2022-12-18T10:33:34;-4.10;1.00
38938;DHT22;24727;51.974;20.868;2022-12-18T10:36:00;-4.00;1.00
38938;DHT22;24727;51.974;20.868;2022-12-18T10:38:28;-3.80;1.00
38938;DHT22;24727;51.974;20.868;2022-12-18T10:40:57;-4.00;1.00
38938;DHT22;24727;51.974;20.868;2022-12-18T10:43:26;-3.90;1.00
38938;DHT22;24727;51.974;20.868;2022-12-18T10:51:33;-3.80;1.00
38938;DHT22;24727;51.974;20.868;2022-12-18T10:54:04;-3.60;1.00
38938;DHT22;24727;51.974;20.868;2022-12-18T10:56:35;-3.70;1.00
38938;DHT22;24727;51.974;20.868;2022-12-18T10:59:09;-3.80;1.00
38938;DHT22;24727;51.974;20.868;2022-12-18T11:01:52;-3.80;1.00
38938;DHT22;24727;51.974;20.868;2022-12-18T11:04:29;-3.70;1.00
38938;DHT22;24727;51.974;20.868;2022-12-18T11:06:59;-3.70;1.00
38938;DHT22;24727;51.974;20.868;2022-12-18T11:09:28;-3.60;1.00
38938;DHT22;24727;51.974;20.868;2022-12-18T11:12:00;-3.40;1.00
38938;DHT22;24727;51.974;20.868;2022-12-18T11:14:34;-3.00;1.00
38938;DHT22;24727;51.974;20.868;2022-12-18T11:17:27;-2.70;1.00
38938;DHT22;24727;51.974;20.868;2022-12-18T11:20:00;-2.50;1.00
38938;DHT22;24727;51.974;20.868;2022-12-18T11:22:36;-2.20;1.00
38938;DHT22;24727;51.974;20.868;2022-12-18T11:27:48;-1.80;1.00
38938;DHT22;24727;51.974;20.868;2022-12-18T11:30:36;-2.20;1.00
38938;DHT22;24727;51.974;20.868;2022-12-18T11:33:19;-2.80;1.00
38938;DHT22;24727;51.974;20.868;2022-12-18T11:35:59;-3.20;1.00
38938;DHT22;24727;51.974;20.868;2022-12-18T11:38:37;-3.30;1.00
38938;DHT22;24727;51.974;20.868;2022-12-18T11:44:22;-2.70;1.00
38938;DHT22;24727;51.974;20.868;2022-12-18T11:46:55;-1.90;1.00
38938;DHT22;24727;51.974;20.868;2022-12-18T11:49:33;-1.40;1.00
38938;DHT22;24727;51.974;20.868;2022-12-18T11:54:29;-1.80;1.00
38938;DHT22;24727;51.974;20.868;2022-12-18T11:59:43;-2.90;1.00
38938;DHT22;24727;51.974;20.868;2022-12-18T12:10:53;-1.40;1.00
38938;DHT22;24727;51.974;20.868;2022-12-18T12:16:44;-0.80;1.00
38938;DHT22;24727;51.974;20.868;2022-12-18T12:28:19;-2.10;1.00
38938;DHT22;24727;51.974;20.868;2022-12-18T12:38:45;-0.90;1.00
38938;DHT22;24727;51.974;20.868;2022-12-18T12:41:23;-0.70;1.00
38938;DHT22;24727;51.974;20.868;2022-12-18T12:44:28;-0.80;1.00
38938;DHT22;24727;51.974;20.868;2022-12-18T12:47:04;-0.80;1.00
38938;DHT22;24727;51.974;20.868;2022-12-18T12:49:37;-0.50;1.00
38938;DHT22;24727;51.974;20.868;2022-12-18T12:52:12;-0.40;1.00
38938;DHT22;24727;51.974;20.868;2022-12-18T12:54:40;-0.20;1.00
38938;DHT22;24727;51.974;20.868;2022-12-18T13:00:05;-0.40;1.00
38938;DHT22;24727;51.974;20.868;2022-12-18T13:05:35;-0.20;1.00
38938;DHT22;24727;51.974;20.868;2022-12-18T13:08:10;-0.50;1.00
38938;DHT22;24727;51.974;20.868;2022-12-18T13:10:41;-0.60;1.00
38938;DHT22;24727;51.974;20.868;2022-12-18T13:16:03;-0.70;1.00
38938;DHT22;24727;51.974;20.868;2022-12-18T13:18:29;-0.60;1.00
38938;DHT22;24727;51.974;20.868;2022-12-18T13:23:32;-0.30;1.00
38938;DHT22;24727;51.974;20.868;2022-12-18T13:36:42;0.00;1.00
38938;DHT22;24727;51.974;20.868;2022-12-18T13:39:23;0.00;1.00
38938;DHT22;24727;51.974;20.868;2022-12-18T13:44:37;0.10;1.00
38938;DHT22;24727;51.974;20.868;2022-12-18T13:49:51;0.10;1.00
38938;DHT22;24727;51.974;20.868;2022-12-18T13:52:36;0.00;1.00
38938;DHT22;24727;51.974;20.868;2022-12-18T13:55:07;0.10;1.00
38938;DHT22;24727;51.974;20.868;2022-12-18T13:57:38;0.20;1.00
38938;DHT22;24727;51.974;20.868;2022-12-18T14:00:25;0.10;1.00
38938;DHT22;24727;51.974;20.868;2022-12-18T14:02:52;0.10;1.00
38938;DHT22;24727;51.974;20.868;2022-12-18T14:05:34;0.10;1.00
38938;DHT22;24727;51.974;20.868;2022-12-18T14:08:15;0.00;1.00
38938;DHT22;24727;51.974;20.868;2022-12-18T14:10:48;0.00;1.00
38938;DHT22;24727;51.974;20.868;2022-12-18T14:13:24;0.10;1.00
38938;DHT22;24727;51.974;20.868;2022-12-18T14:15:54;0.00;1.00
38938;DHT22;24727;51.974;20.868;2022-12-18T14:18:43;0.00;1.00
38938;DHT22;24727;51.974;20.868;2022-12-18T14:21:30;0.00;1.00
38938;DHT22;24727;51.974;20.868;2022-12-18T14:24:14;0.00;1.00
38938;DHT22;24727;51.974;20.868;2022-12-18T14:26:41;-0.30;1.00
38938;DHT22;24727;51.974;20.868;2022-12-18T14:29:27;-0.20;1.00
38938;DHT22;24727;51.974;20.868;2022-12-18T14:32:11;-0.10;1.00
38938;DHT22;24727;51.974;20.868;2022-12-18T14:35:00;0.00;1.00
38938;DHT22;24727;51.974;20.868;2022-12-18T14:37:38;0.00;1.00
38938;DHT22;24727;51.974;20.868;2022-12-18T14:40:04;0.10;1.00
38938;DHT22;24727;51.974;20.868;2022-12-18T14:42:31;0.10;1.00
38938;DHT22;24727;51.974;20.868;2022-12-18T14:50:56;0.00;1.00
38938;DHT22;24727;51.974;20.868;2022-12-18T14:53:37;0.00;1.00
38938;DHT22;24727;51.974;20.868;2022-12-18T14:58:45;0.00;1.00
38938;DHT22;24727;51.974;20.868;2022-12-18T15:01:21;0.00;1.00
38938;DHT22;24727;51.974;20.868;2022-12-18T15:03:51;0.10;1.00
38938;DHT22;24727;51.974;20.868;2022-12-18T15:06:28;0.10;1.00
38938;DHT22;24727;51.974;20.868;2022-12-18T15:08:55;0.10;1.00
38938;DHT22;24727;51.974;20.868;2022-12-18T15:11:42;0.10;1.00
38938;DHT22;24727;51.974;20.868;2022-12-18T15:16:53;0.00;1.00
38938;DHT22;24727;51.974;20.868;2022-12-18T15:19:22;0.00;1.00
38938;DHT22;24727;51.974;20.868;2022-12-18T15:21:49;0.10;1.00
38938;DHT22;24727;51.974;20.868;2022-12-18T15:24:26;0.10;1.00
38938;DHT22;24727;51.974;20.868;2022-12-18T15:26:56;0.00;1.00
38938;DHT22;24727;51.974;20.868;2022-12-18T15:29:23;0.00;1.00
38938;DHT22;24727;51.974;20.868;2022-12-18T15:32:00;0.10;1.00
38938;DHT22;24727;51.974;20.868;2022-12-18T15:34:28;0.10;1.00
38938;DHT22;24727;51.974;20.868;2022-12-18T15:36:55;0.10;1.00
38938;DHT22;24727;51.974;20.868;2022-12-18T15:39:21;0.10;1.00
38938;DHT22;24727;51.974;20.868;2022-12-18T15:41:48;0.10;1.00
38938;DHT22;24727;51.974;20.868;2022-12-18T15:44:33;0.20;1.00
38938;DHT22;24727;51.974;20.868;2022-12-18T15:47:26;0.20;1.00
38938;DHT22;24727;51.974;20.868;2022-12-18T15:49:55;0.30;1.00
38938;DHT22;24727;51.974;20.868;2022-12-18T15:52:21;0.20;1.00
38938;DHT22;24727;51.974;20.868;2022-12-18T15:54:52;0.30;1.00
38938;DHT22;24727;51.974;20.868;2022-12-18T15:57:38;0.10;1.00
38938;DHT22;24727;51.974;20.868;2022-12-18T16:00:05;0.20;1.00
38938;DHT22;24727;51.974;20.868;2022-12-18T16:02:34;0.30;1.00
38938;DHT22;24727;51.974;20.868;2022-12-18T16:05:01;0.30;1.00
38938;DHT22;24727;51.974;20.868;2022-12-18T16:07:30;0.30;1.00
38938;DHT22;24727;51.974;20.868;2022-12-18T16:09:58;0.30;1.00
38938;DHT22;24727;51.974;20.868;2022-12-18T16:12:25;0.00;1.00
38938;DHT22;24727;51.974;20.868;2022-12-18T16:14:51;0.00;1.00
38938;DHT22;24727;51.974;20.868;2022-12-18T16:17:18;0.20;1.00
38938;DHT22;24727;51.974;20.868;2022-12-18T16:19:44;0.30;1.00
38938;DHT22;24727;51.974;20.868;2022-12-18T16:22:30;0.40;1.00
38938;DHT22;24727;51.974;20.868;2022-12-18T16:24:59;0.40;1.00
38938;DHT22;24727;51.974;20.868;2022-12-18T16:27:27;0.30;1.00
38938;DHT22;24727;51.974;20.868;2022-12-18T16:29:54;0.30;1.00
38938;DHT22;24727;51.974;20.868;2022-12-18T16:32:21;0.30;1.00
38938;DHT22;24727;51.974;20.868;2022-12-18T16:34:49;0.30;1.00
38938;DHT22;24727;51.974;20.868;2022-12-18T16:37:17;0.30;1.00
38938;DHT22;24727;51.974;20.868;2022-12-18T16:39:45;0.40;1.00
38938;DHT22;24727;51.974;20.868;2022-12-18T16:42:17;-0.30;1.00
38938;DHT22;24727;51.974;20.868;2022-12-18T16:44:46;-0.20;1.00
38938;DHT22;24727;51.974;20.868;2022-12-18T16:47:13;-0.10;1.00
38938;DHT22;24727;51.974;20.868;2022-12-18T16:49:41;0.10;1.00
38938;DHT22;24727;51.974;20.868;2022-12-18T16:52:08;0.10;1.00
38938;DHT22;24727;51.974;20.868;2022-12-18T16:54:34;0.00;1.00
38938;DHT22;24727;51.974;20.868;2022-12-18T16:57:02;-0.10;1.00
38938;DHT22;24727;51.974;20.868;2022-12-18T16:59:34;-0.10;1.00
38938;DHT22;24727;51.974;20.868;2022-12-18T17:02:00;0.00;1.00
38938;DHT22;24727;51.974;20.868;2022-12-18T17:04:27;0.10;1.00
38938;DHT22;24727;51.974;20.868;2022-12-18T17:06:53;0.10;1.00
38938;DHT22;24727;51.974;20.868;2022-12-18T17:09:20;0.00;1.00
38938;DHT22;24727;51.974;20.868;2022-12-18T17:11:53;0.00;1.00
38938;DHT22;24727;51.974;20.868;2022-12-18T17:14:22;-0.10;1.00
38938;DHT22;24727;51.974;20.868;2022-12-18T17:16:49;-0.10;1.00
38938;DHT22;24727;51.974;20.868;2022-12-18T17:19:17;0.00;1.00
38938;DHT22;24727;51.974;20.868;2022-12-18T17:21:48;0.00;1.00
38938;DHT22;24727;51.974;20.868;2022-12-18T17:24:16;0.10;1.00
38938;DHT22;24727;51.974;20.868;2022-12-18T17:26:43;0.10;1.00
38938;DHT22;24727;51.974;20.868;2022-12-18T17:29:12;0.20;1.00
38938;DHT22;24727;51.974;20.868;2022-12-18T17:31:40;-0.10;1.00
38938;DHT22;24727;51.974;20.868;2022-12-18T17:34:09;0.00;1.00
38938;DHT22;24727;51.974;20.868;2022-12-18T17:36:36;-0.10;1.00
38938;DHT22;24727;51.974;20.868;2022-12-18T17:39:04;-0.60;1.00
38938;DHT22;24727;51.974;20.868;2022-12-18T17:41:31;-0.70;1.00
38938;DHT22;24727;51.974;20.868;2022-12-18T17:44:00;-0.90;1.00
38938;DHT22;24727;51.974;20.868;2022-12-18T17:46:31;-1.20;1.00
38938;DHT22;24727;51.974;20.868;2022-12-18T17:49:00;-1.10;1.00
38938;DHT22;24727;51.974;20.868;2022-12-18T17:51:28;-1.00;1.00
38938;DHT22;24727;51.974;20.868;2022-12-18T17:53:55;-0.80;1.00
38938;DHT22;24727;51.974;20.868;2022-12-18T17:56:24;-0.90;1.00
38938;DHT22;24727;51.974;20.868;2022-12-18T17:58:51;-1.10;1.00
38938;DHT22;24727;51.974;20.868;2022-12-18T18:01:21;-0.90;1.00